Time;durP1;ratioP1;P1;durP2;ratioP2;P2;SDS_P1;SDS_P2;PMS_P1;PMS_P2;Temp;Humidity;BMP_temperature;BMP_pressure;BME280_temperature;BME280_humidity;BME280_pressure;Samples;Min_cycle;Max_cycle;Signal;HPM_P1;HPM_P2
2022/01/26 00:07:13;;;;;;;138.70;47.85;;;;;;;2.75;100.00;103326.09;5014951;28;20127;-70
2022/01/26 00:09:38;;;;;;;148.75;51.55;;;;;;;2.66;100.00;103325.38;5015321;28;20065;-71
2022/01/26 00:12:04;;;;;;;154.45;51.47;;;;;;;2.73;100.00;103320.06;5015254;28;20045;-71
2022/01/26 00:14:29;;;;;;;154.90;51.33;;;;;;;2.74;100.00;103315.53;5015717;28;20045;-71
2022/01/26 00:16:55;;;;;;;160.45;51.80;;;;;;;2.80;100.00;103306.69;5014729;28;20409;-71
2022/01/26 00:19:41;;;;;;;160.88;51.78;;;;;;;2.86;100.00;103308.59;5014582;28;20520;-71
2022/01/26 00:22:07;;;;;;;157.48;50.75;;;;;;;2.96;100.00;103317.19;5013233;28;20437;-71
2022/01/26 00:29:40;;;;;;;154.18;49.58;;;;;;;2.86;100.00;103311.31;4996196;28;20037;-71
2022/01/26 00:40:37;;;;;;;149.00;50.08;;;;;;;2.92;100.00;103305.16;4997385;28;20042;-71
2022/01/26 00:43:14;;;;;;;158.25;52.92;;;;;;;2.86;100.00;103300.53;5016078;28;20180;-71
2022/01/26 00:45:40;;;;;;;157.50;50.42;;;;;;;2.77;100.00;103304.38;5015182;28;20048;-71
2022/01/26 00:48:08;;;;;;;166.23;53.72;;;;;;;2.82;100.00;103308.16;4996880;28;20545;-70
2022/01/26 00:50:35;;;;;;;158.52;51.92;;;;;;;2.88;100.00;103310.09;5014257;28;20049;-71
2022/01/26 00:53:01;;;;;;;167.07;51.35;;;;;;;2.83;100.00;103299.03;5015679;28;20133;-71
2022/01/26 00:55:26;;;;;;;159.13;53.35;;;;;;;2.75;100.00;103309.09;5014433;28;20041;-71
2022/01/26 00:57:52;;;;;;;150.10;52.33;;;;;;;2.76;100.00;103300.81;5014311;28;20243;-71
2022/01/26 01:00:21;;;;;;;148.88;50.22;;;;;;;2.69;100.00;103300.75;5013974;28;20053;-71
2022/01/26 01:02:46;;;;;;;163.90;53.75;;;;;;;2.61;100.00;103295.47;4997287;28;20037;-70
2022/01/26 01:05:21;;;;;;;150.02;52.33;;;;;;;2.63;100.00;103290.75;5014903;28;20045;-71
2022/01/26 01:07:50;;;;;;;174.40;54.58;;;;;;;2.60;100.00;103283.03;4997135;28;20453;-71
2022/01/26 01:10:19;;;;;;;155.82;51.95;;;;;;;2.66;100.00;103284.97;5015118;28;20608;-71
2022/01/26 01:12:45;;;;;;;158.20;51.42;;;;;;;2.59;100.00;103294.00;5015337;28;20052;-71
2022/01/26 01:15:14;;;;;;;155.70;52.35;;;;;;;2.57;100.00;103285.28;4996711;28;20049;-71
2022/01/26 01:17:45;;;;;;;163.25;52.60;;;;;;;2.57;100.00;103280.72;4995932;28;20046;-70
2022/01/26 01:28:21;;;;;;;169.18;52.17;;;;;;;2.78;100.00;103281.78;5013855;28;20139;-71
2022/01/26 01:30:52;;;;;;;172.95;52.75;;;;;;;2.71;100.00;103277.16;5013500;28;20045;-71
2022/01/26 01:33:21;;;;;;;166.88;53.22;;;;;;;2.60;100.00;103269.56;5014905;28;20368;-71
2022/01/26 01:35:48;;;;;;;160.70;52.20;;;;;;;2.56;100.00;103273.69;5014190;28;20047;-70
2022/01/26 01:38:16;;;;;;;156.05;51.60;;;;;;;2.54;100.00;103280.28;5013894;28;20040;-70
2022/01/26 01:40:45;;;;;;;158.40;53.67;;;;;;;2.46;100.00;103289.28;5014424;28;20120;-70
2022/01/26 01:43:11;;;;;;;157.68;49.72;;;;;;;2.48;100.00;103289.94;5014219;28;20041;-71
2022/01/26 01:45:44;;;;;;;167.32;51.83;;;;;;;2.41;100.00;103284.47;5013873;28;20068;-71
2022/01/26 01:48:11;;;;;;;166.48;52.00;;;;;;;2.50;100.00;103290.56;5013577;28;20043;-71
2022/01/26 01:50:41;;;;;;;153.20;51.17;;;;;;;2.37;100.00;103282.34;5013861;28;20057;-70
2022/01/26 01:53:07;;;;;;;162.73;53.00;;;;;;;2.40;100.00;103273.91;5013091;28;20029;-71
2022/01/26 01:55:33;;;;;;;175.70;53.88;;;;;;;2.49;100.00;103278.97;5013560;28;20491;-70
2022/01/26 01:58:00;;;;;;;168.38;52.88;;;;;;;2.30;100.00;103265.28;5008675;28;20049;-70
2022/01/26 02:00:28;;;;;;;166.15;52.92;;;;;;;2.20;100.00;103254.81;5011856;28;20045;-70
2022/01/26 02:02:54;;;;;;;153.93;48.50;;;;;;;2.43;100.00;103251.97;4996217;28;20092;-71
2022/01/26 02:05:20;;;;;;;164.23;51.40;;;;;;;2.33;100.00;103252.28;5001169;28;20050;-72
2022/01/26 02:07:46;;;;;;;166.98;51.00;;;;;;;2.19;100.00;103256.66;4976083;28;20076;-72
2022/01/26 02:10:11;;;;;;;151.68;49.92;;;;;;;2.29;100.00;103258.22;4991964;28;20037;-71
2022/01/26 02:12:43;;;;;;;161.30;50.08;;;;;;;2.25;100.00;103264.00;4994658;28;21024;-71
2022/01/26 02:15:15;;;;;;;159.57;50.20;;;;;;;2.22;100.00;103250.91;4994949;28;20048;-72
2022/01/26 02:55:35;;;;;;;151.55;48.95;;;;;;;2.34;100.00;103210.88;5017655;28;20049;-72
2022/01/26 03:03:27;;;;;;;149.13;49.17;;;;;;;2.43;100.00;103214.28;5060975;28;20045;-69
2022/01/26 03:06:01;;;;;;;154.40;48.25;;;;;;;2.47;100.00;103216.41;5061004;28;20041;-68
2022/01/26 03:08:36;;;;;;;154.27;48.15;;;;;;;2.40;100.00;103203.88;5061112;28;20051;-68
2022/01/26 03:11:08;;;;;;;155.02;48.90;;;;;;;2.49;100.00;103205.44;5061216;28;20140;-69
2022/01/26 03:13:38;;;;;;;154.55;49.55;;;;;;;2.41;100.00;103205.53;5060672;28;20052;-68
2022/01/26 03:16:11;;;;;;;152.30;49.78;;;;;;;2.53;100.00;103209.44;5060500;28;20054;-69
2022/01/26 03:21:26;;;;;;;155.20;50.95;;;;;;;2.53;100.00;103217.50;5040722;28;20036;-68
2022/01/26 03:29:39;;;;;;;151.77;48.05;;;;;;;2.36;100.00;103224.16;5040748;28;20037;-68
2022/01/26 03:34:39;;;;;;;149.23;49.88;;;;;;;2.41;100.00;103210.94;5040694;28;20032;-69
2022/01/26 03:37:08;;;;;;;149.70;49.70;;;;;;;2.38;100.00;103203.22;5051301;28;20342;-69
2022/01/26 03:39:42;;;;;;;154.75;50.35;;;;;;;2.47;100.00;103196.69;5060109;28;20135;-68
2022/01/26 03:42:13;;;;;;;159.60;50.50;;;;;;;2.44;100.00;103195.25;5048993;28;20056;-69
2022/01/26 03:44:39;;;;;;;159.45;49.70;;;;;;;2.42;100.00;103191.06;5039886;28;20087;-69
2022/01/26 03:47:06;;;;;;;164.00;51.40;;;;;;;2.46;100.00;103181.56;5039320;28;20171;-69
2022/01/26 03:49:31;;;;;;;159.48;51.30;;;;;;;2.38;100.00;103168.22;5037801;28;20480;-68
2022/01/26 03:51:56;;;;;;;166.90;52.10;;;;;;;2.51;100.00;103157.59;5039061;28;20037;-68
2022/01/26 03:54:22;;;;;;;167.70;52.72;;;;;;;2.46;100.00;103176.19;5038949;28;20048;-68
2022/01/26 03:56:48;;;;;;;162.35;51.28;;;;;;;2.41;100.00;103168.66;5039602;28;20040;-68
2022/01/26 03:59:14;;;;;;;143.40;48.75;;;;;;;2.47;100.00;103183.22;5046662;28;20068;-68
2022/01/26 04:01:39;;;;;;;155.60;50.47;;;;;;;2.50;100.00;103185.53;5058418;28;20079;-69
2022/01/26 04:04:05;;;;;;;151.52;52.15;;;;;;;2.41;100.00;103189.38;5058614;28;20048;-68
2022/01/26 04:06:32;;;;;;;148.77;50.08;;;;;;;2.51;100.00;103200.69;5058686;28;20068;-68
2022/01/26 04:08:58;;;;;;;156.40;51.50;;;;;;;2.49;100.00;103202.72;5058017;28;20498;-69
2022/01/26 04:11:34;;;;;;;150.07;51.92;;;;;;;2.45;100.00;103190.69;5058764;28;20032;-69
2022/01/26 04:14:04;;;;;;;151.75;49.25;;;;;;;2.41;100.00;103195.59;5056762;28;20179;-68
2022/01/26 04:16:29;;;;;;;153.07;52.67;;;;;;;2.51;100.00;103202.56;5058832;28;20041;-68
2022/01/26 04:18:56;;;;;;;161.70;51.38;;;;;;;2.51;100.00;103203.38;5058588;28;20044;-68
2022/01/26 04:21:44;;;;;;;168.85;53.58;;;;;;;2.43;100.00;103208.88;5058576;28;20029;-68
2022/01/26 04:26:54;;;;;;;158.30;52.95;;;;;;;2.43;100.00;103208.88;5057732;28;20037;-67
2022/01/26 04:29:28;;;;;;;168.63;55.55;;;;;;;2.46;100.00;103213.88;5057915;28;20087;-68
2022/01/26 04:31:54;;;;;;;168.48;53.17;;;;;;;2.47;100.00;103200.25;5057668;28;20056;-69
2022/01/26 04:34:20;;;;;;;158.43;53.40;;;;;;;2.63;100.00;103226.09;5058621;28;20040;-69
2022/01/26 04:36:54;;;;;;;163.15;52.72;;;;;;;2.63;100.00;103228.78;5058585;28;20074;-68
2022/01/26 04:40:03;;;;;;;163.13;53.33;;;;;;;2.57;100.00;103236.81;5057801;28;20485;-69
2022/01/26 04:42:14;;;;;;;166.82;54.75;;;;;;;2.64;100.00;103243.91;5049581;28;20112;-69
2022/01/26 04:45:02;;;;;;;167.40;55.53;;;;;;;2.68;100.00;103242.53;5058515;28;20040;-69
2022/01/26 04:47:28;;;;;;;161.20;52.47;;;;;;;2.76;100.00;103225.38;5058455;28;20671;-68
2022/01/26 04:49:53;;;;;;;174.82;55.78;;;;;;;2.77;100.00;103228.94;5058297;28;20040;-69
2022/01/26 04:52:19;;;;;;;171.68;54.20;;;;;;;2.70;100.00;103221.59;5057718;28;20459;-69
2022/01/26 04:54:44;;;;;;;154.55;51.50;;;;;;;2.54;100.00;103216.47;5057558;28;20048;-69
2022/01/26 04:57:09;;;;;;;167.07;54.97;;;;;;;2.51;100.00;103200.69;5038207;28;20053;-68
2022/01/26 04:59:35;;;;;;;174.82;56.22;;;;;;;2.57;100.00;103189.16;5049097;28;20037;-68
2022/01/26 05:02:00;;;;;;;162.18;52.40;;;;;;;2.66;100.00;103189.84;5058266;28;20056;-68
2022/01/26 05:04:26;;;;;;;178.05;55.92;;;;;;;2.53;100.00;103190.56;5058394;28;20040;-68
2022/01/26 05:06:51;;;;;;;181.77;57.17;;;;;;;2.61;100.00;103185.03;5057707;28;20044;-68
2022/01/26 05:09:19;;;;;;;165.27;55.08;;;;;;;2.71;100.00;103177.47;5058554;28;20079;-69
2022/01/26 05:11:47;;;;;;;178.18;56.53;;;;;;;2.71;100.00;103168.56;5057794;28;20378;-69
2022/01/26 05:14:12;;;;;;;171.52;55.33;;;;;;;2.59;100.00;103168.25;5057849;28;20094;-69
2022/01/26 05:16:38;;;;;;;187.88;58.25;;;;;;;2.56;100.00;103149.78;5058262;28;20473;-68
2022/01/26 05:19:05;;;;;;;181.45;56.95;;;;;;;2.56;100.00;103139.00;5058090;28;20044;-69
2022/01/26 05:21:30;;;;;;;184.70;58.15;;;;;;;2.54;100.00;103146.44;5058638;28;20040;-69
2022/01/26 05:23:56;;;;;;;182.15;57.33;;;;;;;2.52;100.00;103140.41;5057176;28;20040;-69
2022/01/26 05:26:21;;;;;;;172.30;52.97;;;;;;;2.55;100.00;103136.50;5057779;28;20033;-69
2022/01/26 05:28:47;;;;;;;184.30;58.33;;;;;;;2.48;100.00;103152.59;5058184;28;20044;-69
2022/01/26 05:31:13;;;;;;;173.85;54.17;;;;;;;2.46;100.00;103146.56;5058079;28;20032;-68
2022/01/26 05:33:38;;;;;;;172.55;54.30;;;;;;;2.51;100.00;103149.53;5057996;28;20465;-68
2022/01/26 05:36:04;;;;;;;180.57;57.20;;;;;;;2.44;100.00;103136.00;5057896;28;20073;-68
2022/01/26 05:38:29;;;;;;;173.40;55.42;;;;;;;2.44;100.00;103135.16;5057187;28;20044;-68
2022/01/26 05:40:56;;;;;;;172.18;56.85;;;;;;;2.45;100.00;103131.44;5058575;28;20534;-68
2022/01/26 05:43:21;;;;;;;184.70;57.65;;;;;;;2.54;100.00;103135.66;5057676;28;20040;-68
2022/01/26 05:45:51;;;;;;;191.13;59.78;;;;;;;2.44;100.00;103124.38;5057553;28;20141;-69
2022/01/26 05:48:16;;;;;;;191.75;60.28;;;;;;;2.50;100.00;103128.97;5057201;28;20464;-68
2022/01/26 05:51:03;;;;;;;182.63;58.47;;;;;;;2.48;100.00;103129.19;5051206;28;20067;-69
2022/01/26 05:53:28;;;;;;;185.88;57.63;;;;;;;2.41;100.00;103130.97;5036381;28;20044;-69
2022/01/26 05:55:53;;;;;;;184.40;58.20;;;;;;;2.42;100.00;103127.28;5043281;28;20040;-69
2022/01/26 05:58:19;;;;;;;178.43;58.42;;;;;;;2.54;100.00;103127.59;5042641;28;20474;-69
2022/01/26 06:00:45;;;;;;;188.77;59.50;;;;;;;2.38;100.00;103131.34;5038626;28;20057;-69
2022/01/26 06:03:10;;;;;;;183.23;57.83;;;;;;;2.51;100.00;103135.22;5041788;28;20116;-69
2022/01/26 06:05:36;;;;;;;176.90;57.58;;;;;;;2.51;100.00;103130.66;5042190;28;20036;-68
2022/01/26 06:08:01;;;;;;;186.13;57.90;;;;;;;2.61;100.00;103131.16;5054726;28;20136;-68
2022/01/26 06:10:27;;;;;;;196.65;60.45;;;;;;;2.54;100.00;103135.66;5056285;28;20036;-68
2022/01/26 06:12:52;;;;;;;197.07;58.05;;;;;;;2.47;100.00;103145.53;5057402;28;20156;-68
2022/01/26 06:15:19;;;;;;;180.93;56.22;;;;;;;2.52;100.00;103148.47;5045756;28;20573;-68
2022/01/26 06:17:45;;;;;;;182.38;58.92;;;;;;;2.43;100.00;103150.47;5056260;28;20103;-68
2022/01/26 06:20:10;;;;;;;195.30;60.50;;;;;;;2.54;100.00;103132.16;5038593;28;20056;-68
2022/01/26 06:22:37;;;;;;;193.68;61.85;;;;;;;2.49;100.00;103148.88;5037787;28;20045;-68
2022/01/26 06:25:06;;;;;;;192.20;60.95;;;;;;;2.55;100.00;103131.09;5041438;28;20055;-70
2022/01/26 06:27:32;;;;;;;205.25;61.70;;;;;;;2.54;100.00;103141.06;5057186;28;20037;-67
2022/01/26 06:29:57;;;;;;;202.60;62.75;;;;;;;2.55;100.00;103148.09;5056902;28;20044;-67
2022/01/26 06:32:23;;;;;;;190.55;61.33;;;;;;;2.44;100.00;103140.53;5054467;28;20114;-69
2022/01/26 06:34:48;;;;;;;200.70;62.83;;;;;;;2.52;100.00;103143.09;5057665;28;20274;-69
2022/01/26 06:37:16;;;;;;;202.63;61.55;;;;;;;2.61;100.00;103141.94;5059024;28;20670;-70
2022/01/26 06:39:41;;;;;;;184.52;60.42;;;;;;;2.53;100.00;103144.78;5060532;28;20044;-69
2022/01/26 06:42:12;;;;;;;201.60;63.60;;;;;;;2.48;100.00;103153.44;5060048;28;20051;-69
2022/01/26 06:44:48;;;;;;;185.45;61.55;;;;;;;2.53;100.00;103155.56;5060910;28;20540;-69
2022/01/26 06:47:31;;;;;;;210.27;61.95;;;;;;;2.56;100.00;103155.16;5061185;28;20036;-69
2022/01/26 06:49:56;;;;;;;204.27;64.88;;;;;;;2.56;100.00;103147.09;5062453;28;20046;-70
2022/01/26 06:52:21;;;;;;;195.20;60.90;;;;;;;2.54;100.00;103151.00;5067347;28;20056;-69
2022/01/26 06:54:47;;;;;;;194.18;60.42;;;;;;;2.47;100.00;103140.13;5057169;28;20052;-69
2022/01/26 06:57:12;;;;;;;199.45;63.40;;;;;;;2.45;100.00;103147.59;5037147;28;20505;-69
2022/01/26 06:59:37;;;;;;;210.05;63.60;;;;;;;2.51;100.00;103129.84;5048293;28;20041;-69
2022/01/26 07:02:03;;;;;;;185.10;59.17;;;;;;;2.49;100.00;103132.72;5056478;28;20056;-69
2022/01/26 07:04:29;;;;;;;187.45;59.80;;;;;;;2.34;100.00;103124.69;5057131;28;20047;-69
2022/01/26 07:06:54;;;;;;;187.68;59.17;;;;;;;2.41;100.00;103133.66;5057148;28;20037;-69
2022/01/26 07:09:20;;;;;;;195.93;63.63;;;;;;;2.44;100.00;103140.53;5066461;28;20044;-69
2022/01/26 07:11:46;;;;;;;195.23;57.90;;;;;;;2.45;100.00;103155.69;5056353;28;20054;-69
2022/01/26 07:14:22;;;;;;;187.27;58.65;;;;;;;2.48;100.00;103169.59;5055879;28;20131;-69
2022/01/26 07:19:51;;;;;;;185.00;58.08;;;;;;;2.53;100.00;103165.47;5055445;28;20124;-69
2022/01/26 07:22:17;;;;;;;182.73;58.47;;;;;;;2.45;100.00;103158.38;5055546;28;20661;-69
2022/01/26 07:24:42;;;;;;;195.68;59.05;;;;;;;2.54;100.00;103176.06;5055615;28;20604;-69
2022/01/26 07:27:09;;;;;;;197.57;62.17;;;;;;;2.54;100.00;103159.09;5055231;28;20036;-69
2022/01/26 07:29:34;;;;;;;196.13;60.60;;;;;;;2.49;100.00;103138.94;5053892;28;20048;-69
2022/01/26 07:32:02;;;;;;;192.68;61.90;;;;;;;2.48;100.00;103137.28;5059166;28;20045;-69
2022/01/26 07:34:27;;;;;;;196.23;59.75;;;;;;;2.53;100.00;103134.00;5059111;28;20041;-70
2022/01/26 07:36:58;;;;;;;204.38;65.43;;;;;;;2.46;100.00;103138.50;5058891;28;20370;-69
2022/01/26 07:39:41;;;;;;;200.23;65.55;;;;;;;2.39;100.00;103137.59;5058925;28;20049;-69
2022/01/26 07:42:08;;;;;;;203.80;64.53;;;;;;;2.31;100.00;103145.81;5059227;28;20044;-69
2022/01/26 07:44:33;;;;;;;206.68;63.97;;;;;;;2.41;100.00;103157.06;5058688;28;20051;-69
2022/01/26 07:46:59;;;;;;;213.38;66.88;;;;;;;2.28;100.00;103151.56;5058970;28;20044;-69
2022/01/26 07:49:24;;;;;;;210.48;65.32;;;;;;;2.34;100.00;103161.56;5058880;28;20056;-69
2022/01/26 07:51:51;;;;;;;212.98;64.43;;;;;;;2.32;100.00;103164.44;5058890;28;20052;-68
2022/01/26 07:54:18;;;;;;;223.30;66.18;;;;;;;2.33;100.00;103181.41;5058526;28;20060;-69
2022/01/26 07:56:44;;;;;;;227.88;67.18;;;;;;;2.33;100.00;103176.03;5058502;28;20083;-69
2022/01/26 07:59:09;;;;;;;218.50;67.15;;;;;;;2.34;100.00;103175.03;5059031;28;20127;-69
2022/01/26 08:01:35;;;;;;;207.13;65.53;;;;;;;2.26;100.00;103187.56;5059233;28;20060;-69
2022/01/26 08:04:01;;;;;;;216.70;64.68;;;;;;;2.38;100.00;103195.16;5057739;28;20044;-69
2022/01/26 08:06:26;;;;;;;231.48;70.68;;;;;;;2.49;100.00;103210.81;5059453;28;20458;-69
2022/01/26 08:08:51;;;;;;;229.02;66.80;;;;;;;2.43;100.00;103190.03;5059507;28;20048;-69
2022/01/26 08:11:17;;;;;;;235.57;67.35;;;;;;;2.44;100.00;103194.38;5059245;28;20040;-68
2022/01/26 08:13:42;;;;;;;228.45;69.28;;;;;;;2.42;100.00;103196.47;5056787;28;20409;-68
2022/01/26 08:16:08;;;;;;;230.55;68.88;;;;;;;2.46;100.00;103185.09;5058411;28;20051;-69
2022/01/26 08:18:33;;;;;;;238.10;69.85;;;;;;;2.54;100.00;103184.16;5058680;28;20063;-69
2022/01/26 08:21:05;;;;;;;220.50;67.45;;;;;;;2.48;100.00;103182.22;5039804;28;20509;-69
2022/01/26 08:23:31;;;;;;;236.85;68.32;;;;;;;2.51;100.00;103192.63;5038486;28;20548;-69
2022/01/26 08:25:57;;;;;;;226.98;67.55;;;;;;;2.47;100.00;103185.94;5038370;28;20044;-69
2022/01/26 08:28:28;;;;;;;238.23;66.13;;;;;;;2.53;100.00;103187.88;5038389;28;20045;-69
2022/01/26 08:30:54;;;;;;;219.30;67.57;;;;;;;2.59;100.00;103192.50;5038411;28;20140;-69
2022/01/26 08:33:19;;;;;;;228.45;69.88;;;;;;;2.53;100.00;103187.03;5038556;28;20067;-69
2022/01/26 08:35:46;;;;;;;244.90;71.93;;;;;;;2.48;100.00;103195.69;5039031;28;20476;-68
2022/01/26 08:38:11;;;;;;;232.98;65.72;;;;;;;2.44;100.00;103194.38;5041701;28;20168;-68
2022/01/26 08:40:37;;;;;;;233.18;67.93;;;;;;;2.59;100.00;103202.41;5057708;28;20048;-69
2022/01/26 08:43:02;;;;;;;231.20;68.45;;;;;;;2.51;100.00;103205.25;5057682;28;20052;-68
2022/01/26 08:45:28;;;;;;;246.73;67.60;;;;;;;2.62;100.00;103202.88;5058219;28;20072;-69
2022/01/26 08:47:54;;;;;;;227.45;70.50;;;;;;;2.55;100.00;103196.56;5056108;28;20501;-69
2022/01/26 08:50:19;;;;;;;234.32;66.63;;;;;;;2.61;100.00;103193.13;5058456;28;20047;-68
2022/01/26 08:52:45;;;;;;;234.48;66.30;;;;;;;2.56;100.00;103195.56;5058421;28;20113;-68
2022/01/26 08:55:10;;;;;;;224.27;67.50;;;;;;;2.65;100.00;103196.28;5056283;28;20036;-69
2022/01/26 08:57:37;;;;;;;234.15;68.53;;;;;;;2.61;100.00;103194.97;5058157;28;20534;-69
2022/01/26 09:00:08;;;;;;;235.32;67.28;;;;;;;2.66;100.00;103177.22;5042781;28;20461;-69
2022/01/26 09:02:34;;;;;;;239.93;66.55;;;;;;;2.84;100.00;103179.44;5038194;28;20151;-69
2022/01/26 09:05:04;;;;;;;228.48;67.57;;;;;;;2.74;100.00;103178.13;5035918;28;20064;-69
2022/01/26 09:07:29;;;;;;;222.18;65.88;;;;;;;2.70;100.00;103185.72;5038314;28;20045;-69
2022/01/26 09:09:58;;;;;;;229.32;67.80;;;;;;;2.79;100.00;103186.44;5037764;28;20045;-69
2022/01/26 09:12:25;;;;;;;221.07;64.18;;;;;;;2.81;100.00;103182.53;5037270;28;20348;-69
2022/01/26 09:14:52;;;;;;;230.88;67.70;;;;;;;2.74;100.00;103188.91;5037165;28;20044;-68
2022/01/26 09:17:18;;;;;;;225.88;66.35;;;;;;;2.79;100.00;103189.13;5036907;28;20120;-69
2022/01/26 09:19:45;;;;;;;220.75;65.93;;;;;;;2.80;100.00;103188.13;5044778;28;20098;-69
2022/01/26 09:22:15;;;;;;;233.13;67.10;;;;;;;2.76;100.00;103186.81;5056049;28;20072;-69
2022/01/26 09:24:43;;;;;;;210.77;65.85;;;;;;;2.85;100.00;103175.72;5056954;28;20032;-69
2022/01/26 09:27:12;;;;;;;212.60;65.53;;;;;;;2.84;100.00;103165.13;5055904;28;20153;-69
2022/01/26 09:29:38;;;;;;;209.18;63.40;;;;;;;2.94;100.00;103162.97;5052297;28;20550;-69
2022/01/26 09:32:06;;;;;;;226.20;65.75;;;;;;;2.92;100.00;103159.63;5055907;28;20040;-69
2022/01/26 09:34:35;;;;;;;206.20;63.70;;;;;;;2.88;100.00;103152.94;5055403;28;20409;-69
2022/01/26 09:37:05;;;;;;;215.35;64.15;;;;;;;2.95;100.00;103153.81;5056348;28;20068;-69
2022/01/26 09:39:30;;;;;;;225.38;63.72;;;;;;;2.98;100.00;103156.13;5053776;28;20075;-68
2022/01/26 09:41:57;;;;;;;215.52;65.32;;;;;;;2.92;100.00;103162.31;5057466;28;20059;-69
2022/01/26 09:44:23;;;;;;;216.35;66.28;;;;;;;2.87;100.00;103162.06;5056825;28;20374;-68
2022/01/26 09:46:48;;;;;;;212.85;63.78;;;;;;;2.99;100.00;103160.47;5056389;28;20043;-69
2022/01/26 09:49:18;;;;;;;212.93;64.70;;;;;;;3.00;100.00;103159.47;5056338;28;20036;-69
2022/01/26 09:51:50;;;;;;;206.77;63.03;;;;;;;2.88;100.00;103163.69;5057001;28;20040;-69
2022/01/26 09:54:18;;;;;;;200.97;63.23;;;;;;;3.05;100.00;103148.09;5056065;28;20392;-69
2022/01/26 09:56:49;;;;;;;196.32;61.80;;;;;;;3.00;100.00;103153.25;5039469;28;20998;-68
2022/01/26 09:59:16;;;;;;;203.40;61.90;;;;;;;3.10;100.00;103145.63;5044278;28;20087;-69
2022/01/26 10:01:47;;;;;;;209.27;62.47;;;;;;;3.05;100.00;103150.78;5055952;28;20044;-69
2022/01/26 10:04:40;;;;;;;198.55;63.58;;;;;;;3.04;100.00;103163.44;5056432;28;20071;-68
2022/01/26 10:07:16;;;;;;;203.55;63.13;;;;;;;3.13;100.00;103173.03;5053793;28;20091;-69
2022/01/26 10:09:58;;;;;;;214.93;62.08;;;;;;;3.14;100.00;103187.34;5056748;28;20084;-69
2022/01/26 10:15:28;;;;;;;188.63;60.80;;;;;;;3.13;100.00;103188.38;5056592;28;20455;-69
2022/01/26 10:18:23;;;;;;;197.02;61.40;;;;;;;3.27;100.00;103192.00;5056057;28;20032;-69
2022/01/26 10:20:51;;;;;;;190.88;60.22;;;;;;;3.26;100.00;103198.41;5046602;28;20133;-69
2022/01/26 10:23:25;;;;;;;195.82;60.45;;;;;;;3.19;100.00;103214.56;5056334;28;20095;-69
2022/01/26 10:26:07;;;;;;;195.75;63.25;;;;;;;3.18;100.00;103218.28;5056319;28;20480;-69
2022/01/26 10:28:52;;;;;;;181.83;60.50;;;;;;;3.30;100.00;103210.50;5056938;28;20052;-69
2022/01/26 10:31:22;;;;;;;183.25;59.13;;;;;;;3.31;100.00;103207.59;5056041;28;20044;-68
2022/01/26 10:34:02;;;;;;;182.52;59.58;;;;;;;3.29;100.00;103214.22;5055939;28;20043;-69
2022/01/26 10:36:35;;;;;;;195.75;60.83;;;;;;;3.25;100.00;103205.69;5056335;28;20037;-69
2022/01/26 10:39:08;;;;;;;187.15;58.50;;;;;;;3.31;100.00;103206.75;5056368;28;20461;-69
2022/01/26 10:41:34;;;;;;;;;;;;;;;3.37;100.00;103204.13;5057252;28;20523;-68
2022/01/26 10:44:01;;;;;;;198.18;59.72;;;;;;;3.39;100.00;103198.50;5056667;28;20030;-69
2022/01/26 10:46:29;;;;;;;192.48;58.58;;;;;;;3.50;100.00;103195.28;5057067;28;20402;-69
2022/01/26 10:49:09;;;;;;;193.32;62.53;;;;;;;3.51;100.00;103199.63;5054832;28;20408;-69
2022/01/26 10:51:52;;;;;;;190.02;60.78;;;;;;;3.57;100.00;103196.13;5056085;28;20045;-68
2022/01/26 10:54:37;;;;;;;175.85;56.78;;;;;;;3.54;100.00;103184.91;5056631;28;20630;-69
2022/01/26 10:57:09;;;;;;;179.95;59.08;;;;;;;3.46;100.00;103183.22;5053853;28;20040;-69
2022/01/26 10:59:37;;;;;;;188.32;59.33;;;;;;;3.44;100.00;103190.69;5056170;28;20036;-69
2022/01/26 11:02:05;;;;;;;184.07;60.50;;;;;;;3.57;100.00;103190.72;5056250;28;20040;-69
2022/01/26 11:04:33;;;;;;;197.18;61.15;;;;;;;3.62;100.00;103179.34;5055714;28;20437;-68
2022/01/26 11:07:00;;;;;;;186.52;60.78;;;;;;;3.48;100.00;103180.31;5059976;28;20036;-68
2022/01/26 11:09:30;;;;;;;181.77;58.88;;;;;;;3.50;100.00;103178.25;5060097;28;20099;-69
2022/01/26 11:12:28;;;;;;;175.57;55.65;;;;;;;3.71;100.00;103180.84;5060397;28;20056;-69
2022/01/26 11:15:06;;;;;;;173.10;56.45;;;;;;;3.73;100.00;103183.38;5051827;28;20927;-69
2022/01/26 11:17:35;;;;;;;164.35;54.28;;;;;;;3.86;100.00;103180.72;5059027;28;20060;-68
2022/01/26 11:20:16;;;;;;;168.27;55.42;;;;;;;3.86;100.00;103180.72;5056187;28;20073;-69
2022/01/26 11:22:57;;;;;;;162.68;54.28;;;;;;;3.78;100.00;103168.25;5059693;28;20520;-68
2022/01/26 11:25:25;;;;;;;155.90;53.70;;;;;;;3.70;100.00;103162.19;5059082;28;20055;-69
2022/01/26 11:27:52;;;;;;;151.52;54.28;;;;;;;3.63;100.00;103162.13;5058723;28;20532;-69
2022/01/26 11:30:32;;;;;;;155.20;53.58;;;;;;;3.67;100.00;103163.41;5058790;28;20471;-69
2022/01/26 11:33:11;;;;;;;156.07;53.47;;;;;;;3.72;100.00;103165.50;5056915;28;20032;-69
2022/01/26 11:35:39;;;;;;;136.40;48.15;;;;;;;3.63;100.00;103160.25;5058798;28;20159;-68
2022/01/26 11:38:09;;;;;;;140.63;48.35;;;;;;;3.76;100.00;103167.59;5059357;28;20036;-69
2022/01/26 11:46:35;;;;;;;136.32;48.15;;;;;;;3.99;100.00;103150.25;5058918;28;20040;-69
2022/01/26 11:49:06;;;;;;;138.57;49.85;;;;;;;3.95;100.00;103160.59;5058567;28;20481;-69
2022/01/26 11:51:49;;;;;;;120.15;44.78;;;;;;;3.97;100.00;103155.84;5059004;28;20135;-69
2022/01/26 11:54:20;;;;;;;126.10;44.88;;;;;;;4.20;100.00;103143.88;5059640;28;20046;-69
2022/01/26 11:57:06;;;;;;;127.03;45.70;;;;;;;4.03;100.00;103149.63;5045869;28;20468;-69
2022/01/26 11:59:34;;;;;;;135.25;45.63;;;;;;;4.10;100.00;103146.94;5042881;28;20041;-68
2022/01/26 12:02:05;;;;;;;117.38;43.03;;;;;;;4.09;100.00;103145.28;5043104;28;20521;-69
2022/01/26 12:04:33;;;;;;;109.95;39.85;;;;;;;3.96;100.00;103139.88;5052074;28;20102;-68
2022/01/26 12:07:23;;;;;;;114.45;42.17;;;;;;;3.98;100.00;103138.59;5055196;28;20435;-69
2022/01/26 12:09:49;;;;;;;98.35;37.88;;;;;;;3.92;100.00;103136.72;5053652;28;20044;-69
2022/01/26 12:12:19;;;;;;;108.63;39.55;;;;;;;4.09;100.00;103140.72;5058555;28;20094;-69
2022/01/26 12:15:01;;;;;;;102.05;37.03;;;;;;;4.12;100.00;103136.78;5054285;28;20044;-69
2022/01/26 12:17:30;;;;;;;97.65;37.13;;;;;;;4.06;100.00;103143.81;5058356;28;20111;-69
2022/01/26 12:31:58;;;;;;;95.97;36.15;;;;;;;4.04;100.00;103132.41;5058763;28;20169;-69
2022/01/26 12:35:00;;;;;;;114.22;42.22;;;;;;;4.27;100.00;103126.63;4995568;28;20038;-69
2022/01/26 12:45:20;;;;;;;;;;;;;;;4.74;100.00;103105.03;5058268;28;20651;-69
2022/01/26 12:47:47;;;;;;;109.32;39.50;;;;;;;4.66;100.00;103113.38;5057742;28;20383;-69
2022/01/26 12:50:12;;;;;;;112.43;40.30;;;;;;;4.66;100.00;103099.88;5055178;28;20353;-69
2022/01/26 12:52:38;;;;;;;103.63;38.65;;;;;;;4.77;100.00;103101.94;5057509;28;20033;-69
2022/01/26 12:55:04;;;;;;;98.70;39.25;;;;;;;4.90;100.00;103090.28;5057755;28;20059;-69
2022/01/26 12:57:29;;;;;;;105.40;41.20;;;;;;;4.91;100.00;103090.03;5054604;28;20541;-69
2022/01/26 13:00:03;;;;;;;105.22;40.45;;;;;;;4.85;100.00;103084.66;5042501;28;20049;-69
2022/01/26 13:02:29;;;;;;;105.13;39.70;;;;;;;4.73;100.00;103082.59;5038073;28;20040;-69
2022/01/26 13:05:03;;;;;;;102.38;37.05;;;;;;;4.69;100.00;103080.53;5037323;28;20397;-69
2022/01/26 13:07:29;;;;;;;105.05;39.30;;;;;;;4.77;100.00;103077.63;5043366;28;20492;-69